sensor_id;sensor_type;location;lat;lon;timestamp;pressure;altitude;pressure_sealevel;temperature;humidity
57412;BME280;43247;52.828;-8.980;2023-08-21T00:00:33;101624.55;;;18.09;92.20
57412;BME280;43247;52.828;-8.980;2023-08-21T00:01:34;101621.72;;;18.09;92.22
57412;BME280;43247;52.828;-8.980;2023-08-21T00:02:34;101621.99;;;18.09;92.23
57412;BME280;43247;52.828;-8.980;2023-08-21T00:03:34;101624.40;;;18.09;92.18
57412;BME280;43247;52.828;-8.980;2023-08-21T00:04:34;101626.23;;;18.09;92.23
57412;BME280;43247;52.828;-8.980;2023-08-21T00:05:34;101625.42;;;18.09;92.30
57412;BME280;43247;52.828;-8.980;2023-08-21T00:06:35;101625.68;;;18.08;92.34
57412;BME280;43247;52.828;-8.980;2023-08-21T00:07:35;101627.48;;;18.08;92.39
57412;BME280;43247;52.828;-8.980;2023-08-21T00:08:36;101627.13;;;18.08;92.29
57412;BME280;43247;52.828;-8.980;2023-08-21T00:09:36;101624.32;;;18.08;92.22
57412;BME280;43247;52.828;-8.980;2023-08-21T00:10:37;101623.08;;;18.08;92.22
57412;BME280;43247;52.828;-8.980;2023-08-21T00:11:37;101622.77;;;18.08;92.16
57412;BME280;43247;52.828;-8.980;2023-08-21T00:12:37;101618.08;;;18.08;92.13
57412;BME280;43247;52.828;-8.980;2023-08-21T00:13:37;101621.80;;;18.08;92.15
57412;BME280;43247;52.828;-8.980;2023-08-21T00:14:37;101621.38;;;18.07;92.11
57412;BME280;43247;52.828;-8.980;2023-08-21T00:15:38;101623.51;;;18.07;92.09
57412;BME280;43247;52.828;-8.980;2023-08-21T00:16:38;101621.61;;;18.07;92.01
57412;BME280;43247;52.828;-8.980;2023-08-21T00:17:38;101620.72;;;18.06;92.01
57412;BME280;43247;52.828;-8.980;2023-08-21T00:18:38;101619.70;;;18.06;92.08
57412;BME280;43247;52.828;-8.980;2023-08-21T00:19:38;101620.58;;;18.06;92.11
57412;BME280;43247;52.828;-8.980;2023-08-21T00:20:38;101618.81;;;18.05;92.17
57412;BME280;43247;52.828;-8.980;2023-08-21T00:21:38;101619.98;;;18.05;92.19
57412;BME280;43247;52.828;-8.980;2023-08-21T00:22:39;101623.95;;;18.05;92.18
57412;BME280;43247;52.828;-8.980;2023-08-21T00:23:39;101625.64;;;18.05;92.20
57412;BME280;43247;52.828;-8.980;2023-08-21T00:24:39;101624.32;;;18.05;92.22
57412;BME280;43247;52.828;-8.980;2023-08-21T00:25:39;101625.49;;;18.04;92.25
57412;BME280;43247;52.828;-8.980;2023-08-21T00:26:39;101623.90;;;18.04;92.29
57412;BME280;43247;52.828;-8.980;2023-08-21T00:27:39;101618.90;;;18.04;92.28
57412;BME280;43247;52.828;-8.980;2023-08-21T00:28:39;101614.89;;;18.04;92.31
57412;BME280;43247;52.828;-8.980;2023-08-21T00:29:40;101609.22;;;18.04;92.33
57412;BME280;43247;52.828;-8.980;2023-08-21T00:30:41;101606.94;;;18.04;92.33
57412;BME280;43247;52.828;-8.980;2023-08-21T00:31:40;101605.91;;;18.03;92.32
57412;BME280;43247;52.828;-8.980;2023-08-21T00:32:40;101606.19;;;18.04;92.32
57412;BME280;43247;52.828;-8.980;2023-08-21T00:33:40;101604.49;;;18.03;92.33
57412;BME280;43247;52.828;-8.980;2023-08-21T00:34:40;101600.10;;;18.03;92.38
57412;BME280;43247;52.828;-8.980;2023-08-21T00:35:42;101598.33;;;18.03;92.41
57412;BME280;43247;52.828;-8.980;2023-08-21T00:36:41;101599.10;;;18.04;92.48
57412;BME280;43247;52.828;-8.980;2023-08-21T00:37:41;101599.52;;;18.03;92.46
57412;BME280;43247;52.828;-8.980;2023-08-21T00:38:41;101596.34;;;18.03;92.31
57412;BME280;43247;52.828;-8.980;2023-08-21T00:39:41;101593.54;;;18.03;92.21
57412;BME280;43247;52.828;-8.980;2023-08-21T00:40:41;101596.46;;;18.02;92.25
57412;BME280;43247;52.828;-8.980;2023-08-21T00:41:42;101595.05;;;18.02;92.18
57412;BME280;43247;52.828;-8.980;2023-08-21T00:42:42;101598.29;;;18.02;92.16
57412;BME280;43247;52.828;-8.980;2023-08-21T00:43:42;101599.35;;;18.02;92.25
57412;BME280;43247;52.828;-8.980;2023-08-21T00:44:42;101600.70;;;18.01;92.19
57412;BME280;43247;52.828;-8.980;2023-08-21T00:45:45;101598.20;;;18.01;92.14
57412;BME280;43247;52.828;-8.980;2023-08-21T00:46:43;101595.91;;;18.01;92.17
57412;BME280;43247;52.828;-8.980;2023-08-21T00:47:43;101597.26;;;18.00;92.20
57412;BME280;43247;52.828;-8.980;2023-08-21T00:48:43;101598.14;;;18.00;92.16
57412;BME280;43247;52.828;-8.980;2023-08-21T00:49:43;101597.57;;;17.99;92.18
57412;BME280;43247;52.828;-8.980;2023-08-21T00:50:44;101595.63;;;17.98;92.14
57412;BME280;43247;52.828;-8.980;2023-08-21T00:51:45;101598.67;;;17.97;92.15
57412;BME280;43247;52.828;-8.980;2023-08-21T00:52:45;101598.18;;;17.97;92.21
57412;BME280;43247;52.828;-8.980;2023-08-21T00:53:45;101597.17;;;17.97;92.18
57412;BME280;43247;52.828;-8.980;2023-08-21T00:54:45;101598.24;;;17.97;92.20
57412;BME280;43247;52.828;-8.980;2023-08-21T00:55:45;101599.98;;;17.96;92.18
57412;BME280;43247;52.828;-8.980;2023-08-21T00:56:45;101600.13;;;17.96;92.18
57412;BME280;43247;52.828;-8.980;2023-08-21T00:57:45;101604.37;;;17.95;92.17
57412;BME280;43247;52.828;-8.980;2023-08-21T00:58:45;101604.93;;;17.95;92.20
57412;BME280;43247;52.828;-8.980;2023-08-21T00:59:46;101602.19;;;17.95;92.23
57412;BME280;43247;52.828;-8.980;2023-08-21T01:00:46;101605.51;;;17.95;92.21
57412;BME280;43247;52.828;-8.980;2023-08-21T01:01:46;101600.90;;;17.94;92.24
57412;BME280;43247;52.828;-8.980;2023-08-21T01:02:46;101599.66;;;17.94;92.21
57412;BME280;43247;52.828;-8.980;2023-08-21T01:03:46;101600.74;;;17.93;92.22
57412;BME280;43247;52.828;-8.980;2023-08-21T01:04:46;101598.72;;;17.93;92.27
57412;BME280;43247;52.828;-8.980;2023-08-21T01:05:46;101596.99;;;17.94;92.23
57412;BME280;43247;52.828;-8.980;2023-08-21T01:06:48;101598.32;;;17.93;92.23
57412;BME280;43247;52.828;-8.980;2023-08-21T01:07:51;101594.17;;;17.94;92.23
57412;BME280;43247;52.828;-8.980;2023-08-21T01:08:53;101595.96;;;17.94;92.25
57412;BME280;43247;52.828;-8.980;2023-08-21T01:09:52;101595.60;;;17.93;92.27
57412;BME280;43247;52.828;-8.980;2023-08-21T01:10:52;101595.64;;;17.93;92.33
57412;BME280;43247;52.828;-8.980;2023-08-21T01:11:50;101592.30;;;17.93;92.30
57412;BME280;43247;52.828;-8.980;2023-08-21T01:12:52;101595.33;;;17.93;92.33
57412;BME280;43247;52.828;-8.980;2023-08-21T01:13:54;101594.14;;;17.93;92.35
57412;BME280;43247;52.828;-8.980;2023-08-21T01:14:56;101596.71;;;17.93;92.36
57412;BME280;43247;52.828;-8.980;2023-08-21T01:15:51;101593.32;;;17.93;92.39
57412;BME280;43247;52.828;-8.980;2023-08-21T01:16:48;101596.62;;;17.93;92.43
57412;BME280;43247;52.828;-8.980;2023-08-21T01:17:49;101599.54;;;17.93;92.41
57412;BME280;43247;52.828;-8.980;2023-08-21T01:18:49;101602.27;;;17.93;92.45
57412;BME280;43247;52.828;-8.980;2023-08-21T01:19:49;101598.57;;;17.93;92.45
57412;BME280;43247;52.828;-8.980;2023-08-21T01:20:49;101595.01;;;17.93;92.48
57412;BME280;43247;52.828;-8.980;2023-08-21T01:21:49;101593.24;;;17.93;92.45
57412;BME280;43247;52.828;-8.980;2023-08-21T01:22:49;101592.64;;;17.94;92.56
57412;BME280;43247;52.828;-8.980;2023-08-21T01:23:49;101591.62;;;17.93;92.52
57412;BME280;43247;52.828;-8.980;2023-08-21T01:24:49;101593.48;;;17.93;92.54
57412;BME280;43247;52.828;-8.980;2023-08-21T01:25:49;101595.58;;;17.94;92.56
57412;BME280;43247;52.828;-8.980;2023-08-21T01:26:49;101597.31;;;17.93;92.65
57412;BME280;43247;52.828;-8.980;2023-08-21T01:27:50;101600.15;;;17.93;92.77
57412;BME280;43247;52.828;-8.980;2023-08-21T01:28:50;101600.94;;;17.94;92.74
57412;BME280;43247;52.828;-8.980;2023-08-21T01:29:50;101596.35;;;17.93;92.71
57412;BME280;43247;52.828;-8.980;2023-08-21T01:30:53;101594.92;;;17.93;92.81
57412;BME280;43247;52.828;-8.980;2023-08-21T01:31:55;101598.91;;;17.94;92.79
57412;BME280;43247;52.828;-8.980;2023-08-21T01:32:57;101602.27;;;17.94;92.80
57412;BME280;43247;52.828;-8.980;2023-08-21T01:33:54;101595.19;;;17.94;92.70
57412;BME280;43247;52.828;-8.980;2023-08-21T01:34:52;101597.07;;;17.94;92.76
57412;BME280;43247;52.828;-8.980;2023-08-21T01:35:51;101590.42;;;17.93;92.78
57412;BME280;43247;52.828;-8.980;2023-08-21T01:36:52;101605.07;;;17.93;92.85
57412;BME280;43247;52.828;-8.980;2023-08-21T01:37:52;101610.11;;;17.93;92.86
57412;BME280;43247;52.828;-8.980;2023-08-21T01:38:52;101605.99;;;17.93;92.88
57412;BME280;43247;52.828;-8.980;2023-08-21T01:39:53;101605.47;;;17.93;92.83
57412;BME280;43247;52.828;-8.980;2023-08-21T01:40:53;101608.31;;;17.94;92.87
57412;BME280;43247;52.828;-8.980;2023-08-21T01:41:53;101607.06;;;17.93;92.92
57412;BME280;43247;52.828;-8.980;2023-08-21T01:42:53;101607.41;;;17.93;92.92
57412;BME280;43247;52.828;-8.980;2023-08-21T01:43:53;101605.76;;;17.94;92.86
57412;BME280;43247;52.828;-8.980;2023-08-21T01:44:54;101607.71;;;17.93;92.87
57412;BME280;43247;52.828;-8.980;2023-08-21T01:45:54;101606.15;;;17.93;92.88
57412;BME280;43247;52.828;-8.980;2023-08-21T01:46:54;101603.35;;;17.93;92.86
57412;BME280;43247;52.828;-8.980;2023-08-21T01:47:54;101605.27;;;17.93;92.94
57412;BME280;43247;52.828;-8.980;2023-08-21T01:48:54;101603.79;;;17.93;92.96
57412;BME280;43247;52.828;-8.980;2023-08-21T01:49:54;101608.72;;;17.92;92.95
57412;BME280;43247;52.828;-8.980;2023-08-21T01:50:54;101607.07;;;17.93;92.93
57412;BME280;43247;52.828;-8.980;2023-08-21T01:51:54;101606.63;;;17.93;92.95
57412;BME280;43247;52.828;-8.980;2023-08-21T01:52:54;101606.39;;;17.92;92.92
57412;BME280;43247;52.828;-8.980;2023-08-21T01:53:55;101606.27;;;17.92;92.90
57412;BME280;43247;52.828;-8.980;2023-08-21T01:54:55;101603.60;;;17.92;92.95
57412;BME280;43247;52.828;-8.980;2023-08-21T01:55:55;101601.83;;;17.92;92.95
57412;BME280;43247;52.828;-8.980;2023-08-21T01:56:55;101602.55;;;17.92;93.00
57412;BME280;43247;52.828;-8.980;2023-08-21T01:57:55;101602.10;;;17.92;93.01
57412;BME280;43247;52.828;-8.980;2023-08-21T01:58:55;101600.66;;;17.91;92.96
57412;BME280;43247;52.828;-8.980;2023-08-21T01:59:55;101598.48;;;17.91;93.00
57412;BME280;43247;52.828;-8.980;2023-08-21T02:00:56;101598.46;;;17.91;93.03
57412;BME280;43247;52.828;-8.980;2023-08-21T02:01:56;101597.99;;;17.91;93.01
57412;BME280;43247;52.828;-8.980;2023-08-21T02:02:56;101593.74;;;17.91;92.98
57412;BME280;43247;52.828;-8.980;2023-08-21T02:03:56;101589.20;;;17.91;93.01
57412;BME280;43247;52.828;-8.980;2023-08-21T02:04:56;101589.69;;;17.91;93.03
57412;BME280;43247;52.828;-8.980;2023-08-21T02:05:57;101591.82;;;17.91;93.00
57412;BME280;43247;52.828;-8.980;2023-08-21T02:06:57;101590.81;;;17.90;93.01
57412;BME280;43247;52.828;-8.980;2023-08-21T02:07:57;101591.91;;;17.90;93.04
57412;BME280;43247;52.828;-8.980;2023-08-21T02:08:57;101594.59;;;17.91;93.04
57412;BME280;43247;52.828;-8.980;2023-08-21T02:09:57;101594.72;;;17.90;93.01
57412;BME280;43247;52.828;-8.980;2023-08-21T02:10:57;101597.85;;;17.90;93.03
57412;BME280;43247;52.828;-8.980;2023-08-21T02:11:57;101594.20;;;17.90;93.01
57412;BME280;43247;52.828;-8.980;2023-08-21T02:12:58;101593.21;;;17.90;92.97
57412;BME280;43247;52.828;-8.980;2023-08-21T02:13:58;101590.28;;;17.89;92.98
57412;BME280;43247;52.828;-8.980;2023-08-21T02:14:58;101587.99;;;17.90;93.01
57412;BME280;43247;52.828;-8.980;2023-08-21T02:15:58;101589.08;;;17.89;92.97
57412;BME280;43247;52.828;-8.980;2023-08-21T02:16:58;101589.58;;;17.89;92.97
57412;BME280;43247;52.828;-8.980;2023-08-21T02:17:58;101588.04;;;17.89;92.97
57412;BME280;43247;52.828;-8.980;2023-08-21T02:18:58;101585.36;;;17.89;92.95
57412;BME280;43247;52.828;-8.980;2023-08-21T02:19:59;101589.00;;;17.88;92.99
57412;BME280;43247;52.828;-8.980;2023-08-21T02:21:00;101587.76;;;17.88;92.95
57412;BME280;43247;52.828;-8.980;2023-08-21T02:21:59;101587.18;;;17.88;92.94
57412;BME280;43247;52.828;-8.980;2023-08-21T02:23:00;101587.42;;;17.88;92.92
57412;BME280;43247;52.828;-8.980;2023-08-21T02:24:00;101589.35;;;17.87;92.91
57412;BME280;43247;52.828;-8.980;2023-08-21T02:25:00;101585.16;;;17.87;92.94
57412;BME280;43247;52.828;-8.980;2023-08-21T02:26:00;101585.97;;;17.87;92.94
57412;BME280;43247;52.828;-8.980;2023-08-21T02:27:00;101586.26;;;17.87;92.97
57412;BME280;43247;52.828;-8.980;2023-08-21T02:28:00;101583.56;;;17.86;92.99
57412;BME280;43247;52.828;-8.980;2023-08-21T02:29:01;101585.11;;;17.86;92.98
57412;BME280;43247;52.828;-8.980;2023-08-21T02:30:04;101586.63;;;17.86;92.98
57412;BME280;43247;52.828;-8.980;2023-08-21T02:31:03;101586.28;;;17.86;92.91
57412;BME280;43247;52.828;-8.980;2023-08-21T02:32:04;101582.31;;;17.86;92.89
57412;BME280;43247;52.828;-8.980;2023-08-21T02:33:04;101583.97;;;17.86;92.87
57412;BME280;43247;52.828;-8.980;2023-08-21T02:34:04;101584.17;;;17.86;92.84
57412;BME280;43247;52.828;-8.980;2023-08-21T02:35:04;101582.19;;;17.86;92.84
57412;BME280;43247;52.828;-8.980;2023-08-21T02:36:04;101586.43;;;17.85;92.86
57412;BME280;43247;52.828;-8.980;2023-08-21T02:37:04;101587.34;;;17.85;92.78
57412;BME280;43247;52.828;-8.980;2023-08-21T02:38:05;101587.93;;;17.85;92.74
57412;BME280;43247;52.828;-8.980;2023-08-21T02:39:05;101588.81;;;17.84;92.76
57412;BME280;43247;52.828;-8.980;2023-08-21T02:40:06;101588.99;;;17.84;92.74
57412;BME280;43247;52.828;-8.980;2023-08-21T02:41:05;101590.54;;;17.83;92.68
57412;BME280;43247;52.828;-8.980;2023-08-21T02:42:06;101590.35;;;17.83;92.62
57412;BME280;43247;52.828;-8.980;2023-08-21T02:43:06;101589.65;;;17.82;92.62
57412;BME280;43247;52.828;-8.980;2023-08-21T02:44:06;101589.22;;;17.82;92.58
57412;BME280;43247;52.828;-8.980;2023-08-21T02:45:07;101588.38;;;17.81;92.58
57412;BME280;43247;52.828;-8.980;2023-08-21T02:46:06;101590.13;;;17.81;92.55
57412;BME280;43247;52.828;-8.980;2023-08-21T02:47:06;101592.76;;;17.80;92.49
57412;BME280;43247;52.828;-8.980;2023-08-21T02:48:06;101592.91;;;17.79;92.46
57412;BME280;43247;52.828;-8.980;2023-08-21T02:49:06;101591.72;;;17.79;92.44
57412;BME280;43247;52.828;-8.980;2023-08-21T02:50:08;101591.94;;;17.78;92.39
57412;BME280;43247;52.828;-8.980;2023-08-21T02:51:07;101594.05;;;17.78;92.32
57412;BME280;43247;52.828;-8.980;2023-08-21T02:52:07;101591.18;;;17.77;92.35
57412;BME280;43247;52.828;-8.980;2023-08-21T02:53:07;101591.10;;;17.77;92.35
57412;BME280;43247;52.828;-8.980;2023-08-21T02:54:07;101593.77;;;17.76;92.25
57412;BME280;43247;52.828;-8.980;2023-08-21T02:55:08;101594.25;;;17.75;92.18
57412;BME280;43247;52.828;-8.980;2023-08-21T02:56:07;101593.86;;;17.75;92.13
57412;BME280;43247;52.828;-8.980;2023-08-21T02:57:08;101592.95;;;17.74;92.16
57412;BME280;43247;52.828;-8.980;2023-08-21T02:58:08;101589.43;;;17.73;92.02
57412;BME280;43247;52.828;-8.980;2023-08-21T02:59:08;101594.31;;;17.73;91.98
57412;BME280;43247;52.828;-8.980;2023-08-21T03:00:09;101592.10;;;17.72;91.97
57412;BME280;43247;52.828;-8.980;2023-08-21T03:01:08;101596.27;;;17.72;91.93
57412;BME280;43247;52.828;-8.980;2023-08-21T03:02:08;101594.68;;;17.71;91.87
57412;BME280;43247;52.828;-8.980;2023-08-21T03:03:09;101594.26;;;17.70;91.83
57412;BME280;43247;52.828;-8.980;2023-08-21T03:04:09;101594.36;;;17.69;91.81
57412;BME280;43247;52.828;-8.980;2023-08-21T03:05:09;101593.83;;;17.68;91.73
57412;BME280;43247;52.828;-8.980;2023-08-21T03:06:09;101593.83;;;17.67;91.70
57412;BME280;43247;52.828;-8.980;2023-08-21T03:07:10;101593.98;;;17.66;91.67
57412;BME280;43247;52.828;-8.980;2023-08-21T03:08:10;101592.94;;;17.66;91.64
57412;BME280;43247;52.828;-8.980;2023-08-21T03:09:10;101592.68;;;17.65;91.69
57412;BME280;43247;52.828;-8.980;2023-08-21T03:10:10;101594.07;;;17.64;91.56
57412;BME280;43247;52.828;-8.980;2023-08-21T03:11:10;101593.06;;;17.63;91.58
57412;BME280;43247;52.828;-8.980;2023-08-21T03:12:10;101594.30;;;17.62;91.59
57412;BME280;43247;52.828;-8.980;2023-08-21T03:13:10;101596.68;;;17.62;91.54
57412;BME280;43247;52.828;-8.980;2023-08-21T03:14:11;101592.90;;;17.61;91.52
57412;BME280;43247;52.828;-8.980;2023-08-21T03:15:11;101595.52;;;17.60;91.56
57412;BME280;43247;52.828;-8.980;2023-08-21T03:16:11;101596.95;;;17.59;91.57
57412;BME280;43247;52.828;-8.980;2023-08-21T03:17:11;101594.12;;;17.59;91.46
57412;BME280;43247;52.828;-8.980;2023-08-21T03:18:11;101595.29;;;17.58;91.46
57412;BME280;43247;52.828;-8.980;2023-08-21T03:19:11;101595.08;;;17.57;91.42
57412;BME280;43247;52.828;-8.980;2023-08-21T03:20:12;101596.02;;;17.56;91.36
57412;BME280;43247;52.828;-8.980;2023-08-21T03:21:12;101598.90;;;17.56;91.32
57412;BME280;43247;52.828;-8.980;2023-08-21T03:22:12;101595.73;;;17.55;91.29
57412;BME280;43247;52.828;-8.980;2023-08-21T03:23:13;101598.26;;;17.54;91.31
57412;BME280;43247;52.828;-8.980;2023-08-21T03:24:13;101598.85;;;17.53;91.35
57412;BME280;43247;52.828;-8.980;2023-08-21T03:25:13;101599.37;;;17.52;91.31
57412;BME280;43247;52.828;-8.980;2023-08-21T03:26:13;101600.51;;;17.52;91.33
57412;BME280;43247;52.828;-8.980;2023-08-21T03:27:15;101599.07;;;17.51;91.32
57412;BME280;43247;52.828;-8.980;2023-08-21T03:28:13;101597.31;;;17.50;91.37
57412;BME280;43247;52.828;-8.980;2023-08-21T03:29:13;101596.31;;;17.49;91.33
57412;BME280;43247;52.828;-8.980;2023-08-21T03:30:14;101597.74;;;17.49;91.30
57412;BME280;43247;52.828;-8.980;2023-08-21T03:31:14;101596.49;;;17.48;91.32
57412;BME280;43247;52.828;-8.980;2023-08-21T03:32:15;101594.66;;;17.47;91.33
57412;BME280;43247;52.828;-8.980;2023-08-21T03:33:15;101594.54;;;17.46;91.33
57412;BME280;43247;52.828;-8.980;2023-08-21T03:34:15;101595.64;;;17.46;91.31
57412;BME280;43247;52.828;-8.980;2023-08-21T03:35:15;101595.85;;;17.45;91.31
57412;BME280;43247;52.828;-8.980;2023-08-21T03:36:15;101593.88;;;17.44;91.40
57412;BME280;43247;52.828;-8.980;2023-08-21T03:37:15;101592.33;;;17.43;91.36
57412;BME280;43247;52.828;-8.980;2023-08-21T03:38:15;101592.22;;;17.42;91.32
57412;BME280;43247;52.828;-8.980;2023-08-21T03:39:16;101590.97;;;17.42;91.36
57412;BME280;43247;52.828;-8.980;2023-08-21T03:40:16;101589.97;;;17.41;91.38
57412;BME280;43247;52.828;-8.980;2023-08-21T03:41:16;101592.57;;;17.41;91.35
57412;BME280;43247;52.828;-8.980;2023-08-21T03:42:17;101590.60;;;17.40;91.35
57412;BME280;43247;52.828;-8.980;2023-08-21T03:43:17;101595.56;;;17.39;91.29
57412;BME280;43247;52.828;-8.980;2023-08-21T03:44:17;101595.87;;;17.39;91.38
57412;BME280;43247;52.828;-8.980;2023-08-21T03:45:17;101595.70;;;17.38;91.41
57412;BME280;43247;52.828;-8.980;2023-08-21T03:46:17;101594.90;;;17.37;91.39
57412;BME280;43247;52.828;-8.980;2023-08-21T03:47:17;101597.71;;;17.36;91.45
57412;BME280;43247;52.828;-8.980;2023-08-21T03:48:17;101599.36;;;17.35;91.40
57412;BME280;43247;52.828;-8.980;2023-08-21T03:49:18;101604.72;;;17.34;91.38
57412;BME280;43247;52.828;-8.980;2023-08-21T03:50:18;101606.69;;;17.33;91.45
57412;BME280;43247;52.828;-8.980;2023-08-21T03:51:18;101609.41;;;17.33;91.45
57412;BME280;43247;52.828;-8.980;2023-08-21T03:52:18;101609.55;;;17.32;91.45
57412;BME280;43247;52.828;-8.980;2023-08-21T03:53:19;101608.60;;;17.31;91.48
57412;BME280;43247;52.828;-8.980;2023-08-21T03:54:19;101610.22;;;17.30;91.48
57412;BME280;43247;52.828;-8.980;2023-08-21T03:55:19;101608.32;;;17.29;91.53
57412;BME280;43247;52.828;-8.980;2023-08-21T03:56:19;101609.60;;;17.29;91.52
57412;BME280;43247;52.828;-8.980;2023-08-21T03:57:19;101609.69;;;17.28;91.51
57412;BME280;43247;52.828;-8.980;2023-08-21T03:58:19;101609.52;;;17.27;91.51
57412;BME280;43247;52.828;-8.980;2023-08-21T03:59:19;101606.57;;;17.26;91.47
57412;BME280;43247;52.828;-8.980;2023-08-21T04:00:20;101605.15;;;17.25;91.56
57412;BME280;43247;52.828;-8.980;2023-08-21T04:01:20;101606.18;;;17.24;91.53
57412;BME280;43247;52.828;-8.980;2023-08-21T04:02:20;101606.69;;;17.23;91.59
57412;BME280;43247;52.828;-8.980;2023-08-21T04:03:21;101606.54;;;17.22;91.64
57412;BME280;43247;52.828;-8.980;2023-08-21T04:04:21;101606.12;;;17.21;91.59
57412;BME280;43247;52.828;-8.980;2023-08-21T04:05:22;101607.67;;;17.21;91.63
57412;BME280;43247;52.828;-8.980;2023-08-21T04:06:22;101612.01;;;17.20;91.58
57412;BME280;43247;52.828;-8.980;2023-08-21T04:07:22;101611.94;;;17.19;91.69
57412;BME280;43247;52.828;-8.980;2023-08-21T04:08:22;101612.00;;;17.18;91.70
57412;BME280;43247;52.828;-8.980;2023-08-21T04:09:22;101612.96;;;17.17;91.70
57412;BME280;43247;52.828;-8.980;2023-08-21T04:10:22;101614.60;;;17.17;91.77
57412;BME280;43247;52.828;-8.980;2023-08-21T04:11:22;101615.40;;;17.15;91.74
57412;BME280;43247;52.828;-8.980;2023-08-21T04:12:23;101616.54;;;17.15;91.78
57412;BME280;43247;52.828;-8.980;2023-08-21T04:13:23;101614.57;;;17.14;91.73
57412;BME280;43247;52.828;-8.980;2023-08-21T04:14:23;101614.92;;;17.13;91.77
57412;BME280;43247;52.828;-8.980;2023-08-21T04:15:24;101617.27;;;17.13;91.78
57412;BME280;43247;52.828;-8.980;2023-08-21T04:16:24;101614.32;;;17.12;91.77
57412;BME280;43247;52.828;-8.980;2023-08-21T04:17:24;101613.55;;;17.11;91.84
57412;BME280;43247;52.828;-8.980;2023-08-21T04:18:24;101611.61;;;17.10;91.82
57412;BME280;43247;52.828;-8.980;2023-08-21T04:19:24;101611.77;;;17.09;91.85
57412;BME280;43247;52.828;-8.980;2023-08-21T04:20:24;101610.71;;;17.09;91.92
57412;BME280;43247;52.828;-8.980;2023-08-21T04:21:25;101610.56;;;17.08;92.00
57412;BME280;43247;52.828;-8.980;2023-08-21T04:22:25;101608.08;;;17.08;91.91
57412;BME280;43247;52.828;-8.980;2023-08-21T04:23:25;101607.58;;;17.07;91.96
57412;BME280;43247;52.828;-8.980;2023-08-21T04:24:25;101605.73;;;17.06;91.93
57412;BME280;43247;52.828;-8.980;2023-08-21T04:25:25;101603.78;;;17.05;91.95
57412;BME280;43247;52.828;-8.980;2023-08-21T04:26:26;101602.97;;;17.05;92.02
57412;BME280;43247;52.828;-8.980;2023-08-21T04:27:26;101602.75;;;17.04;92.09
57412;BME280;43247;52.828;-8.980;2023-08-21T04:28:26;101600.67;;;17.04;92.08
57412;BME280;43247;52.828;-8.980;2023-08-21T04:29:26;101596.12;;;17.03;92.03
57412;BME280;43247;52.828;-8.980;2023-08-21T04:30:26;101594.12;;;17.02;92.12
57412;BME280;43247;52.828;-8.980;2023-08-21T04:31:26;101590.70;;;17.01;92.19
57412;BME280;43247;52.828;-8.980;2023-08-21T04:32:27;101590.07;;;17.01;92.08
57412;BME280;43247;52.828;-8.980;2023-08-21T04:33:28;101591.27;;;17.00;92.19
57412;BME280;43247;52.828;-8.980;2023-08-21T04:34:27;101589.80;;;17.00;92.16
57412;BME280;43247;52.828;-8.980;2023-08-21T04:35:27;101589.80;;;16.99;92.23
57412;BME280;43247;52.828;-8.980;2023-08-21T04:36:27;101587.77;;;16.99;92.24
57412;BME280;43247;52.828;-8.980;2023-08-21T04:37:27;101587.41;;;16.98;92.25
57412;BME280;43247;52.828;-8.980;2023-08-21T04:38:27;101585.04;;;16.98;92.27
57412;BME280;43247;52.828;-8.980;2023-08-21T04:39:28;101584.11;;;16.98;92.26
57412;BME280;43247;52.828;-8.980;2023-08-21T04:40:28;101581.40;;;16.97;92.25
57412;BME280;43247;52.828;-8.980;2023-08-21T04:41:28;101581.92;;;16.97;92.24
57412;BME280;43247;52.828;-8.980;2023-08-21T04:42:28;101582.37;;;16.97;92.29
57412;BME280;43247;52.828;-8.980;2023-08-21T04:43:28;101579.79;;;16.96;92.34
57412;BME280;43247;52.828;-8.980;2023-08-21T04:44:30;101581.27;;;16.96;92.35
57412;BME280;43247;52.828;-8.980;2023-08-21T04:45:28;101582.94;;;16.96;92.42
57412;BME280;43247;52.828;-8.980;2023-08-21T04:46:29;101582.13;;;16.95;92.45
57412;BME280;43247;52.828;-8.980;2023-08-21T04:47:29;101580.43;;;16.94;92.44
57412;BME280;43247;52.828;-8.980;2023-08-21T04:48:29;101580.23;;;16.94;92.44
57412;BME280;43247;52.828;-8.980;2023-08-21T04:49:29;101580.87;;;16.93;92.40
57412;BME280;43247;52.828;-8.980;2023-08-21T04:50:29;101580.70;;;16.93;92.40
57412;BME280;43247;52.828;-8.980;2023-08-21T04:51:30;101582.81;;;16.93;92.40
57412;BME280;43247;52.828;-8.980;2023-08-21T04:52:30;101582.64;;;16.93;92.41
57412;BME280;43247;52.828;-8.980;2023-08-21T04:53:31;101580.87;;;16.93;92.41
57412;BME280;43247;52.828;-8.980;2023-08-21T04:54:31;101581.55;;;16.93;92.38
57412;BME280;43247;52.828;-8.980;2023-08-21T04:55:31;101581.15;;;16.93;92.35
57412;BME280;43247;52.828;-8.980;2023-08-21T04:56:31;101582.52;;;16.92;92.37
57412;BME280;43247;52.828;-8.980;2023-08-21T04:57:31;101584.50;;;16.92;92.34
57412;BME280;43247;52.828;-8.980;2023-08-21T04:58:31;101579.87;;;16.91;92.34
57412;BME280;43247;52.828;-8.980;2023-08-21T04:59:32;101580.87;;;16.91;92.31
57412;BME280;43247;52.828;-8.980;2023-08-21T05:00:32;101577.45;;;16.91;92.27
57412;BME280;43247;52.828;-8.980;2023-08-21T05:01:32;101573.60;;;16.90;92.20
57412;BME280;43247;52.828;-8.980;2023-08-21T05:02:33;101573.42;;;16.90;92.24
57412;BME280;43247;52.828;-8.980;2023-08-21T05:03:32;101569.78;;;16.90;92.22
57412;BME280;43247;52.828;-8.980;2023-08-21T05:04:33;101570.92;;;16.90;92.22
57412;BME280;43247;52.828;-8.980;2023-08-21T05:05:32;101565.75;;;16.90;92.27
57412;BME280;43247;52.828;-8.980;2023-08-21T05:06:33;101562.42;;;16.89;92.23
57412;BME280;43247;52.828;-8.980;2023-08-21T05:07:34;101562.94;;;16.89;92.22
57412;BME280;43247;52.828;-8.980;2023-08-21T05:08:34;101563.01;;;16.89;92.23
57412;BME280;43247;52.828;-8.980;2023-08-21T05:09:33;101563.89;;;16.89;92.23
57412;BME280;43247;52.828;-8.980;2023-08-21T05:10:33;101564.60;;;16.88;92.27